Time;durP1;ratioP1;P1;durP2;ratioP2;P2;SDS_P1;SDS_P2;PMS_P1;PMS_P2;Temp;Humidity;BMP_temperature;BMP_pressure;BME280_temperature;BME280_humidity;BME280_pressure;Samples;Min_cycle;Max_cycle;Signal;HPM_P1;HPM_P2
2022/10/16 00:00:41;;;;;;;7.70;1.70;;;13.40;99.90;;;;;;5034350;28;20052;-76
2022/10/16 00:03:08;;;;;;;6.55;1.77;;;13.40;99.90;;;;;;5050669;28;20021;-77
2022/10/16 00:05:39;;;;;;;4.82;2.00;;;13.40;99.90;;;;;;5035481;28;20028;-76
2022/10/16 00:08:05;;;;;;;5.68;1.05;;;13.40;99.90;;;;;;5050539;28;20021;-76
2022/10/16 00:10:31;;;;;;;8.05;1.95;;;13.40;99.90;;;;;;5017396;28;20037;-77
2022/10/16 00:12:56;;;;;;;6.68;1.60;;;13.30;99.90;;;;;;5050336;28;20018;-76
2022/10/16 00:15:22;;;;;;;4.60;1.33;;;13.40;99.90;;;;;;5034249;28;20111;-77
2022/10/16 00:17:48;;;;;;;4.18;1.52;;;13.30;99.90;;;;;;5017336;28;20113;-75
2022/10/16 00:20:13;;;;;;;5.78;1.75;;;13.30;99.90;;;;;;5033815;28;20053;-76
2022/10/16 00:22:39;;;;;;;6.38;1.23;;;13.30;99.90;;;;;;5033805;28;20091;-76
2022/10/16 00:25:06;;;;;;;5.55;2.03;;;13.30;99.90;;;;;;5033675;28;20030;-76
2022/10/16 00:27:31;;;;;;;6.82;2.00;;;13.30;99.90;;;;;;5033594;28;20033;-76
2022/10/16 00:29:57;;;;;;;5.60;1.35;;;13.20;99.90;;;;;;5033453;28;20022;-77
2022/10/16 00:32:22;;;;;;;10.65;2.03;;;13.20;99.90;;;;;;5049076;28;20596;-76
2022/10/16 00:34:48;;;;;;;5.30;1.98;;;13.20;99.90;;;;;;5033576;28;20025;-77
2022/10/16 00:37:14;;;;;;;6.72;2.08;;;13.20;99.90;;;;;;5033503;28;20049;-76
2022/10/16 00:39:39;;;;;;;6.78;1.73;;;13.20;99.90;;;;;;5033667;28;20079;-76
2022/10/16 00:42:05;;;;;;;6.20;1.60;;;13.20;99.90;;;;;;5049874;28;20056;-76
2022/10/16 00:44:56;;;;;;;6.28;1.77;;;13.10;99.90;;;;;;5049977;28;20493;-76
2022/10/16 00:47:31;;;;;;;5.95;1.95;;;13.10;99.90;;;;;;5049893;28;20064;-76
2022/10/16 00:50:07;;;;;;;7.07;2.17;;;13.10;99.90;;;;;;5034721;28;20029;-77
2022/10/16 00:52:33;;;;;;;5.80;1.58;;;13.10;99.90;;;;;;5033301;28;20022;-76
2022/10/16 00:55:01;;;;;;;5.20;1.90;;;13.10;99.90;;;;;;5050001;28;20540;-76
2022/10/16 00:57:27;;;;;;;3.92;2.08;;;13.10;99.90;;;;;;5049666;28;20014;-76
2022/10/16 00:59:53;;;;;;;5.60;2.15;;;13.10;99.90;;;;;;5033322;28;20436;-75
2022/10/16 01:02:19;;;;;;;5.18;1.90;;;13.10;99.90;;;;;;5034225;28;20386;-76
2022/10/16 01:04:48;;;;;;;5.35;2.33;;;13.10;99.90;;;;;;5016500;28;20037;-76
2022/10/16 01:07:25;;;;;;;6.32;1.85;;;13.10;99.90;;;;;;5049491;28;20018;-76
2022/10/16 01:10:09;;;;;;;6.75;2.45;;;13.10;99.90;;;;;;5049347;28;20421;-77
2022/10/16 01:12:44;;;;;;;;;;;13.10;99.90;;;;;;5050008;28;20021;-76
2022/10/16 01:15:22;;;;;;;;;;;13.10;99.90;;;;;;5049637;28;19917;-76
2022/10/16 01:18:11;;;;;;;5.10;1.77;;;13.00;99.90;;;;;;5049625;28;19909;-76
2022/10/16 01:20:59;;;;;;;5.47;1.90;;;13.00;99.90;;;;;;5049180;28;20079;-76
2022/10/16 01:23:25;;;;;;;6.80;2.08;;;13.00;99.90;;;;;;5049310;28;20018;-77
2022/10/16 01:26:12;;;;;;;4.80;1.98;;;13.00;99.90;;;;;;5033710;28;20389;-77
2022/10/16 01:29:08;;;;;;;4.05;2.15;;;13.00;99.90;;;;;;5049097;28;20025;-77
2022/10/16 01:31:38;;;;;;;5.95;2.00;;;13.00;99.90;;;;;;5033641;28;20472;-76
2022/10/16 01:34:13;;;;;;;5.80;2.20;;;13.00;99.90;;;;;;5033610;28;20482;-77
2022/10/16 01:36:50;;;;;;;4.00;1.73;;;13.10;99.90;;;;;;5048962;28;20033;-76
2022/10/16 01:39:20;;;;;;;8.80;2.63;;;13.10;99.90;;;;;;5048736;28;20424;-76
2022/10/16 01:41:52;;;;;;;6.82;2.33;;;13.10;99.90;;;;;;5033497;28;20466;-77
2022/10/16 01:44:22;;;;;;;4.13;1.60;;;13.00;99.90;;;;;;5048644;28;20025;-76
2022/10/16 01:46:52;;;;;;;5.95;2.30;;;13.10;99.90;;;;;;5048703;28;20148;-76
2022/10/16 01:49:20;;;;;;;5.95;1.90;;;13.10;99.90;;;;;;5049048;28;20039;-77
2022/10/16 01:51:49;;;;;;;5.18;2.25;;;13.10;99.90;;;;;;5032625;28;20021;-76
2022/10/16 01:54:17;;;;;;;6.78;2.28;;;13.00;99.90;;;;;;5032145;28;20068;-76
2022/10/16 01:56:44;;;;;;;7.53;2.35;;;13.10;99.90;;;;;;5048703;28;20052;-77
2022/10/16 01:59:14;;;;;;;5.25;2.17;;;13.20;99.90;;;;;;5033364;28;20429;-76
2022/10/16 02:01:43;;;;;;;4.10;1.60;;;13.10;99.90;;;;;;5033477;28;20026;-76
2022/10/16 02:04:18;;;;;;;5.35;2.05;;;13.20;99.90;;;;;;5048652;28;20435;-77
2022/10/16 02:06:43;;;;;;;4.45;2.13;;;13.20;99.90;;;;;;5048579;28;20032;-76
2022/10/16 02:09:10;;;;;;;4.53;2.03;;;13.20;99.90;;;;;;5048634;28;20124;-77
2022/10/16 02:11:35;;;;;;;6.25;1.75;;;13.20;99.90;;;;;;5016258;28;20044;-76
2022/10/16 02:14:06;;;;;;;7.55;2.22;;;13.20;99.90;;;;;;5031957;28;20041;-76
2022/10/16 02:16:44;;;;;;;4.38;1.83;;;13.30;99.90;;;;;;5050474;28;20048;-76
2022/10/16 02:19:12;;;;;;;7.80;2.00;;;13.30;99.90;;;;;;5052071;28;20045;-76
2022/10/16 02:21:44;;;;;;;6.85;2.35;;;13.20;99.90;;;;;;5052311;28;20025;-77
2022/10/16 02:24:30;;;;;;;4.85;1.80;;;13.30;99.90;;;;;;5051651;28;20025;-77
2022/10/16 02:26:59;;;;;;;4.97;1.88;;;13.30;99.90;;;;;;5051719;28;20087;-76
2022/10/16 02:29:26;;;;;;;3.95;1.98;;;13.30;99.90;;;;;;5052986;28;20029;-77
2022/10/16 02:31:56;;;;;;;3.72;1.65;;;13.30;99.90;;;;;;5051650;28;20037;-75
2022/10/16 02:34:25;;;;;;;5.15;2.03;;;13.30;99.90;;;;;;5035027;28;20033;-76
2022/10/16 02:36:52;;;;;;;5.18;1.42;;;13.30;99.90;;;;;;5052831;28;20381;-77
2022/10/16 02:39:19;;;;;;;7.45;1.77;;;13.30;99.90;;;;;;5051658;28;20029;-77
2022/10/16 02:41:45;;;;;;;7.47;2.10;;;13.30;99.90;;;;;;5035347;28;20025;-77
2022/10/16 02:44:11;;;;;;;3.17;1.45;;;13.20;99.90;;;;;;5051609;28;20435;-77
2022/10/16 02:46:36;;;;;;;3.28;1.17;;;13.30;99.90;;;;;;5051566;28;20037;-77
2022/10/16 02:49:02;;;;;;;5.97;1.92;;;13.30;99.90;;;;;;5051899;28;20388;-77
2022/10/16 02:51:28;;;;;;;5.18;1.70;;;13.20;99.90;;;;;;5018367;28;20036;-77
2022/10/16 02:53:53;;;;;;;6.68;1.50;;;13.20;99.90;;;;;;5034842;28;20112;-76
2022/10/16 02:56:19;;;;;;;6.00;1.58;;;13.20;99.90;;;;;;5037709;28;20020;-77
2022/10/16 02:58:45;;;;;;;2.05;1.02;;;13.20;99.90;;;;;;5039034;28;20021;-76
2022/10/16 03:01:12;;;;;;;4.53;1.70;;;13.20;99.90;;;;;;5038560;28;20112;-77
2022/10/16 03:03:38;;;;;;;6.07;1.50;;;13.20;99.90;;;;;;5038519;28;20082;-76
2022/10/16 03:06:04;;;;;;;3.30;1.48;;;13.20;99.90;;;;;;5038419;28;20033;-78
2022/10/16 03:08:30;;;;;;;4.60;1.42;;;13.20;99.90;;;;;;5021995;28;20064;-77
2022/10/16 03:10:56;;;;;;;3.63;1.65;;;13.20;99.90;;;;;;5054906;28;20033;-76
2022/10/16 03:13:22;;;;;;;4.82;1.42;;;13.20;99.90;;;;;;5054830;28;20020;-76
2022/10/16 03:15:48;;;;;;;2.25;1.13;;;13.20;99.90;;;;;;5038193;28;20099;-77
2022/10/16 03:18:13;;;;;;;3.83;1.30;;;13.20;99.90;;;;;;5038445;28;20031;-76
2022/10/16 03:20:39;;;;;;;2.88;1.20;;;13.20;99.90;;;;;;5038127;28;20470;-77
2022/10/16 03:23:06;;;;;;;3.45;1.23;;;13.20;99.90;;;;;;5054718;28;20025;-77
2022/10/16 03:25:32;;;;;;;3.42;1.25;;;13.10;99.90;;;;;;5038417;28;20079;-78
2022/10/16 03:27:57;;;;;;;3.83;1.50;;;13.10;99.90;;;;;;5038091;28;20354;-77
2022/10/16 03:30:23;;;;;;;4.15;1.70;;;13.10;99.90;;;;;;5038005;28;20021;-77
2022/10/16 03:32:53;;;;;;;4.55;1.20;;;13.20;99.90;;;;;;5055684;28;20148;-77
2022/10/16 03:35:22;;;;;;;6.50;1.17;;;13.10;99.90;;;;;;5038746;28;20021;-77
2022/10/16 03:37:48;;;;;;;3.78;1.25;;;13.20;99.90;;;;;;5054396;28;20154;-76
2022/10/16 03:40:14;;;;;;;4.70;1.17;;;13.20;99.90;;;;;;5037868;28;20497;-76
2022/10/16 03:42:41;;;;;;;3.65;1.13;;;13.20;99.90;;;;;;5038016;28;20100;-77
2022/10/16 03:45:08;;;;;;;3.95;1.20;;;13.20;99.90;;;;;;5054544;28;20339;-76
2022/10/16 03:47:33;;;;;;;4.88;1.05;;;13.20;99.90;;;;;;5054139;28;20056;-76
2022/10/16 03:49:59;;;;;;;4.95;1.35;;;13.20;99.90;;;;;;5037751;28;20049;-76
2022/10/16 03:52:25;;;;;;;3.30;1.30;;;13.10;99.90;;;;;;5055621;28;20021;-76
2022/10/16 03:54:51;;;;;;;4.82;1.40;;;13.10;99.90;;;;;;5037811;28;20163;-76
2022/10/16 03:57:17;;;;;;;5.20;1.83;;;13.10;99.90;;;;;;5037595;28;20057;-76
2022/10/16 03:59:43;;;;;;;4.70;1.25;;;13.20;99.90;;;;;;5037577;28;20052;-76
2022/10/16 04:02:08;;;;;;;3.47;1.20;;;13.10;99.90;;;;;;5054318;28;20063;-77
2022/10/16 04:04:34;;;;;;;2.97;1.30;;;13.10;99.90;;;;;;5055227;28;20025;-77
2022/10/16 04:07:00;;;;;;;4.00;1.48;;;13.10;99.90;;;;;;5020693;28;20029;-76
2022/10/16 04:09:25;;;;;;;4.90;1.98;;;13.10;99.90;;;;;;5020714;28;20385;-77
2022/10/16 04:11:51;;;;;;;5.18;1.27;;;13.10;99.90;;;;;;5037402;28;20033;-76
2022/10/16 04:14:16;;;;;;;3.63;1.02;;;13.10;99.90;;;;;;5055010;28;20040;-77
2022/10/16 04:16:42;;;;;;;4.93;1.40;;;13.10;99.90;;;;;;5036989;28;20045;-77
2022/10/16 04:19:09;;;;;;;2.28;0.95;;;13.10;99.90;;;;;;5037082;28;20074;-77
2022/10/16 04:21:35;;;;;;;3.85;1.65;;;13.10;99.90;;;;;;5037392;28;20025;-77
2022/10/16 04:24:00;;;;;;;5.40;1.50;;;13.10;99.90;;;;;;5053585;28;20032;-76
2022/10/16 04:26:26;;;;;;;7.13;1.17;;;13.20;99.90;;;;;;5037172;28;20033;-78
2022/10/16 04:28:51;;;;;;;3.25;1.00;;;13.10;99.90;;;;;;5053584;28;20025;-76
2022/10/16 04:31:17;;;;;;;4.35;1.30;;;13.20;99.90;;;;;;5037076;28;20499;-77
2022/10/16 04:33:43;;;;;;;4.53;1.13;;;13.10;99.90;;;;;;5037167;28;20032;-76
2022/10/16 04:36:09;;;;;;;2.97;1.17;;;13.10;99.90;;;;;;5053385;28;20477;-77
2022/10/16 04:38:37;;;;;;;4.00;1.40;;;13.20;99.90;;;;;;5037271;28;20028;-76
2022/10/16 04:41:03;;;;;;;3.75;1.25;;;13.20;99.90;;;;;;5054568;28;20021;-77
2022/10/16 04:43:29;;;;;;;4.00;1.00;;;13.10;99.90;;;;;;5053702;28;20565;-77
2022/10/16 04:45:56;;;;;;;4.38;1.17;;;13.20;99.90;;;;;;5036519;28;20052;-76
2022/10/16 04:48:22;;;;;;;2.88;1.48;;;13.10;99.90;;;;;;5020346;28;20619;-76
2022/10/16 04:50:47;;;;;;;2.83;1.23;;;13.10;99.90;;;;;;5036729;28;20040;-76
2022/10/16 04:53:13;;;;;;;3.47;1.30;;;13.10;99.90;;;;;;5036736;28;20032;-77
2022/10/16 04:55:39;;;;;;;3.22;1.17;;;13.10;99.90;;;;;;5053081;28;20074;-76
2022/10/16 04:58:05;;;;;;;4.13;1.58;;;13.00;99.90;;;;;;5036371;28;20549;-77
2022/10/16 05:00:31;;;;;;;3.35;1.23;;;13.10;99.90;;;;;;5054376;28;20048;-77
2022/10/16 05:02:58;;;;;;;3.60;1.23;;;13.10;99.90;;;;;;5019030;28;20730;-76
2022/10/16 05:05:23;;;;;;;4.32;1.33;;;13.10;99.90;;;;;;5031269;28;20025;-76
2022/10/16 05:07:52;;;;;;;2.55;1.00;;;13.10;99.90;;;;;;5036386;28;20039;-76
2022/10/16 05:10:18;;;;;;;4.50;1.42;;;13.10;99.90;;;;;;5053316;28;20025;-76
2022/10/16 05:12:43;;;;;;;4.78;1.77;;;13.00;99.90;;;;;;5052383;28;20415;-76
2022/10/16 05:15:09;;;;;;;5.97;1.50;;;13.00;99.90;;;;;;5053758;28;20041;-77
2022/10/16 05:17:35;;;;;;;2.58;1.20;;;13.00;99.90;;;;;;5032067;28;20026;-76
2022/10/16 05:20:00;;;;;;;3.85;1.58;;;12.90;99.90;;;;;;5035142;28;20492;-76
2022/10/16 05:22:26;;;;;;;3.30;1.20;;;12.90;99.90;;;;;;5035895;28;20025;-77
2022/10/16 05:24:52;;;;;;;5.63;1.23;;;12.90;99.90;;;;;;5035725;28;20024;-76
2022/10/16 05:27:20;;;;;;;2.97;1.17;;;12.80;99.90;;;;;;5052480;28;20017;-76
2022/10/16 05:29:48;;;;;;;2.83;1.20;;;12.80;99.90;;;;;;5036307;28;20029;-77
2022/10/16 05:32:15;;;;;;;4.05;0.93;;;12.80;99.90;;;;;;5053592;28;20051;-77
2022/10/16 05:34:40;;;;;;;2.35;1.17;;;12.80;99.90;;;;;;5035786;28;20032;-77
2022/10/16 05:37:06;;;;;;;3.25;1.33;;;12.80;99.90;;;;;;5035984;28;20029;-76
2022/10/16 05:39:31;;;;;;;4.47;1.58;;;12.70;99.90;;;;;;5036192;28;20063;-76
2022/10/16 05:41:57;;;;;;;3.58;1.35;;;12.70;99.90;;;;;;5035874;28;20021;-76
2022/10/16 05:44:22;;;;;;;4.13;1.60;;;12.70;99.90;;;;;;5053506;28;20036;-76
2022/10/16 05:46:48;;;;;;;2.88;1.05;;;12.70;99.90;;;;;;5035589;28;20481;-76
2022/10/16 05:49:14;;;;;;;2.20;1.05;;;12.60;99.90;;;;;;5019296;28;20116;-77
2022/10/16 05:51:41;;;;;;;5.95;1.30;;;12.60;99.90;;;;;;5035740;28;20100;-76
2022/10/16 05:54:06;;;;;;;3.67;1.23;;;12.60;99.90;;;;;;5052015;28;20661;-77
2022/10/16 05:56:32;;;;;;;3.67;1.42;;;12.50;99.90;;;;;;5018881;28;20052;-77
2022/10/16 05:58:58;;;;;;;5.18;1.20;;;12.50;99.90;;;;;;5035983;28;20028;-77
2022/10/16 06:01:24;;;;;;;3.60;1.67;;;12.50;99.90;;;;;;5035454;28;20021;-77
2022/10/16 06:03:51;;;;;;;4.25;1.60;;;12.50;99.90;;;;;;5053379;28;20053;-78
2022/10/16 06:06:20;;;;;;;3.42;1.45;;;12.50;99.90;;;;;;5035382;28;20036;-77
2022/10/16 06:08:47;;;;;;;3.40;1.73;;;12.50;99.90;;;;;;5051993;28;20028;-77
2022/10/16 06:11:17;;;;;;;5.45;1.50;;;12.50;99.90;;;;;;5052701;28;20079;-78
2022/10/16 06:13:45;;;;;;;4.63;1.50;;;12.40;99.90;;;;;;5053123;28;20021;-77
2022/10/16 06:16:12;;;;;;;4.22;1.83;;;12.40;99.90;;;;;;5051639;28;20099;-78
2022/10/16 06:18:38;;;;;;;3.78;1.35;;;12.40;99.90;;;;;;5035516;28;20025;-78
2022/10/16 06:21:14;;;;;;;4.30;1.75;;;12.50;99.90;;;;;;5051805;28;20107;-77
2022/10/16 06:23:39;;;;;;;5.00;1.80;;;12.50;99.90;;;;;;5051916;28;20032;-78
2022/10/16 06:26:06;;;;;;;4.38;1.55;;;12.50;99.90;;;;;;5035258;28;20025;-78
2022/10/16 06:28:32;;;;;;;4.15;1.52;;;12.50;99.90;;;;;;5053085;28;20025;-78
2022/10/16 06:31:02;;;;;;;4.82;1.60;;;12.50;99.90;;;;;;5037895;28;20071;-77
2022/10/16 06:33:28;;;;;;;4.53;1.50;;;12.60;99.90;;;;;;5022842;28;20493;-79
2022/10/16 06:35:59;;;;;;;4.10;1.42;;;12.60;99.90;;;;;;5055751;28;20032;-79
2022/10/16 06:38:25;;;;;;;3.17;1.50;;;12.70;99.90;;;;;;5055922;28;20066;-80
2022/10/16 06:40:50;;;;;;;5.05;1.75;;;12.60;99.90;;;;;;5022453;28;20033;-79
2022/10/16 06:43:16;;;;;;;3.55;1.60;;;12.70;99.90;;;;;;5038874;28;20037;-79
2022/10/16 06:45:41;;;;;;;5.75;1.98;;;12.80;99.90;;;;;;5038967;28;20036;-79
2022/10/16 06:48:07;;;;;;;4.75;1.50;;;12.80;99.90;;;;;;5038887;28;20078;-79
2022/10/16 06:50:33;;;;;;;4.40;1.60;;;12.80;99.90;;;;;;5039039;28;20029;-79
2022/10/16 06:52:58;;;;;;;7.40;1.70;;;13.00;99.90;;;;;;5022278;28;20061;-80
2022/10/16 06:55:24;;;;;;;5.93;1.70;;;12.90;99.90;;;;;;5038782;28;20040;-79
2022/10/16 06:57:49;;;;;;;3.05;1.35;;;13.00;99.90;;;;;;5038834;28;20051;-78
2022/10/16 07:00:15;;;;;;;4.68;1.30;;;13.00;99.90;;;;;;5038552;28;20025;-79
2022/10/16 07:02:41;;;;;;;2.80;1.67;;;13.10;99.90;;;;;;5038550;28;20027;-80
2022/10/16 07:05:07;;;;;;;5.18;1.05;;;13.10;99.90;;;;;;5038289;28;20504;-79
2022/10/16 07:07:32;;;;;;;7.30;1.75;;;13.20;99.90;;;;;;5038272;28;20025;-80
2022/10/16 07:09:58;;;;;;;4.03;1.15;;;13.20;99.90;;;;;;5054926;28;20018;-79
2022/10/16 07:12:24;;;;;;;4.20;1.27;;;13.30;99.90;;;;;;5054899;28;20025;-78
2022/10/16 07:14:51;;;;;;;6.80;1.25;;;13.30;99.90;;;;;;5021502;28;20067;-80
2022/10/16 07:17:17;;;;;;;2.17;0.90;;;13.40;99.90;;;;;;5056522;28;20025;-77
2022/10/16 07:19:43;;;;;;;2.92;1.23;;;13.40;99.90;;;;;;5055979;28;20025;-80
2022/10/16 07:22:09;;;;;;;6.13;1.63;;;13.40;99.90;;;;;;5054803;28;20385;-78
2022/10/16 07:24:34;;;;;;;2.90;1.17;;;13.50;99.90;;;;;;5036287;28;20389;-80
2022/10/16 07:27:00;;;;;;;3.58;1.20;;;13.50;99.90;;;;;;5029153;28;20025;-78
2022/10/16 07:29:26;;;;;;;7.30;1.65;;;13.60;99.90;;;;;;5038162;28;20028;-78
2022/10/16 07:31:52;;;;;;;4.72;1.23;;;13.50;99.90;;;;;;5034024;28;20113;-79
2022/10/16 07:34:19;;;;;;;4.68;1.55;;;13.60;99.90;;;;;;5017925;28;20057;-78
2022/10/16 07:36:48;;;;;;;6.18;1.38;;;13.60;99.90;;;;;;5034293;28;20018;-79
2022/10/16 07:39:13;;;;;;;3.67;1.20;;;13.70;99.90;;;;;;5017856;28;20026;-79
2022/10/16 07:41:39;;;;;;;7.32;2.38;;;13.70;99.90;;;;;;5034271;28;20032;-80
2022/10/16 07:44:05;;;;;;;6.72;1.20;;;13.80;99.90;;;;;;5018109;28;20029;-78
2022/10/16 07:46:33;;;;;;;3.85;1.50;;;13.80;99.90;;;;;;5017943;28;20020;-79
2022/10/16 07:48:59;;;;;;;4.03;1.38;;;13.80;99.90;;;;;;5018341;28;20048;-79
2022/10/16 07:51:25;;;;;;;3.58;1.20;;;13.90;99.90;;;;;;5017758;28;20489;-78
2022/10/16 07:53:52;;;;;;;5.90;1.42;;;14.00;99.90;;;;;;5034221;28;20567;-77
2022/10/16 07:56:19;;;;;;;3.47;1.00;;;14.10;99.90;;;;;;5034257;28;20108;-79
2022/10/16 07:58:45;;;;;;;3.80;1.25;;;14.20;99.90;;;;;;5018903;28;20022;-79
2022/10/16 08:01:13;;;;;;;5.00;1.40;;;14.30;99.90;;;;;;5020157;28;20021;-80
2022/10/16 08:03:44;;;;;;;5.40;1.20;;;14.30;99.90;;;;;;5035472;28;20022;-80
2022/10/16 08:06:10;;;;;;;4.95;1.17;;;14.40;99.90;;;;;;5035986;28;20025;-79
2022/10/16 08:08:36;;;;;;;5.88;1.35;;;14.60;99.90;;;;;;5036793;28;20021;-82
2022/10/16 08:11:03;;;;;;;5.47;1.38;;;14.70;99.90;;;;;;5034969;28;20391;-80
2022/10/16 08:13:30;;;;;;;3.53;1.10;;;14.80;99.90;;;;;;5036581;28;20049;-78
2022/10/16 08:15:56;;;;;;;6.93;1.50;;;14.90;99.90;;;;;;5034790;28;20041;-79
2022/10/16 08:18:22;;;;;;;5.38;1.45;;;15.00;99.90;;;;;;5017750;28;20080;-78
2022/10/16 08:20:47;;;;;;;4.00;1.27;;;15.00;99.90;;;;;;5017722;28;20021;-78
2022/10/16 08:23:13;;;;;;;5.53;1.27;;;15.00;99.90;;;;;;5020186;28;20048;-78
2022/10/16 08:25:40;;;;;;;6.05;1.25;;;15.20;99.90;;;;;;5017707;28;20021;-79
2022/10/16 08:28:07;;;;;;;5.50;1.20;;;15.20;99.90;;;;;;5036344;28;20382;-79
2022/10/16 08:30:33;;;;;;;4.85;1.42;;;15.20;99.90;;;;;;5033636;28;20120;-76
2022/10/16 08:32:59;;;;;;;7.55;1.27;;;15.30;99.90;;;;;;5035556;28;20029;-79
2022/10/16 08:35:25;;;;;;;4.75;1.00;;;15.30;99.90;;;;;;5035388;28;20401;-77
2022/10/16 08:37:51;;;;;;;4.10;1.10;;;15.40;99.90;;;;;;5018163;28;20064;-77
2022/10/16 08:40:30;;;;;;;4.22;0.90;;;15.40;99.90;;;;;;5017418;28;20030;-77
2022/10/16 08:43:08;;;;;;;5.05;1.05;;;15.40;99.90;;;;;;5034875;28;20397;-78
2022/10/16 08:46:12;;;;;;;4.53;1.42;;;15.50;99.90;;;;;;5035338;28;20026;-79
2022/10/16 08:48:45;;;;;;;5.97;1.35;;;15.40;99.90;;;;;;5034795;28;20028;-76
2022/10/16 08:51:19;;;;;;;6.35;0.93;;;15.40;99.90;;;;;;5035046;28;20021;-78
2022/10/16 08:53:49;;;;;;;6.32;0.88;;;15.40;99.90;;;;;;5035116;28;20026;-80
2022/10/16 08:56:17;;;;;;;3.85;1.02;;;15.40;99.90;;;;;;5035577;28;20083;-80
2022/10/16 08:58:43;;;;;;;4.93;0.90;;;15.50;99.90;;;;;;5035018;28;20478;-77
2022/10/16 09:01:15;;;;;;;5.10;1.13;;;15.50;99.90;;;;;;5018444;28;20049;-77
2022/10/16 09:04:17;;;;;;;8.20;1.70;;;15.40;99.90;;;;;;5035249;28;20026;-78
2022/10/16 09:06:54;;;;;;;3.05;1.08;;;15.40;99.90;;;;;;5015530;28;20037;-77
2022/10/16 09:09:32;;;;;;;4.40;1.00;;;15.40;99.90;;;;;;5036626;28;20026;-78
2022/10/16 09:12:24;;;;;;;4.20;1.05;;;15.50;99.90;;;;;;5034276;28;20032;-79
2022/10/16 09:15:12;;;;;;;4.55;1.13;;;15.50;99.70;;;;;;5034655;28;20036;-79
2022/10/16 09:18:01;;;;;;;4.63;0.80;;;15.50;99.40;;;;;;5033892;28;20021;-82
2022/10/16 09:21:18;;;;;;;5.10;1.10;;;15.50;99.40;;;;;;5034089;28;20022;-79
2022/10/16 09:23:43;;;;;;;5.88;1.02;;;15.60;99.10;;;;;;4991439;28;20033;-81
2022/10/16 09:26:14;;;;;;;5.38;0.90;;;15.70;99.00;;;;;;5033552;28;20462;-78
2022/10/16 09:28:40;;;;;;;8.38;1.27;;;15.70;98.80;;;;;;5033240;28;20022;-77
2022/10/16 09:31:21;;;;;;;7.90;1.08;;;15.80;98.50;;;;;;5033392;28;20512;-80
2022/10/16 09:33:53;;;;;;;5.03;1.20;;;15.90;98.50;;;;;;5032587;28;20026;-77
2022/10/16 09:36:20;;;;;;;4.80;1.00;;;16.00;98.50;;;;;;5032834;28;20424;-78
2022/10/16 09:38:46;;;;;;;9.57;1.00;;;16.20;98.50;;;;;;5035460;28;20021;-80
2022/10/16 09:41:17;;;;;;;7.72;1.05;;;16.50;98.50;;;;;;5016012;28;20029;-79
2022/10/16 09:43:46;;;;;;;4.50;0.90;;;16.80;98.30;;;;;;5034538;28;20481;-79
2022/10/16 09:46:32;;;;;;;4.95;1.02;;;17.10;98.50;;;;;;5032550;28;20448;-80
2022/10/16 09:49:00;;;;;;;3.92;1.00;;;17.40;98.30;;;;;;5033827;28;20029;-80
2022/10/16 09:51:37;;;;;;;4.43;1.00;;;17.80;98.20;;;;;;5032169;28;20435;-76
2022/10/16 09:54:09;;;;;;;5.03;1.20;;;18.20;96.90;;;;;;5034602;28;20478;-79
2022/10/16 09:56:38;;;;;;;6.72;1.08;;;18.50;96.20;;;;;;5034120;28;20053;-80
2022/10/16 09:59:16;;;;;;;4.00;0.85;;;18.90;96.10;;;;;;5035430;28;20473;-80
2022/10/16 10:01:48;;;;;;;5.03;1.00;;;19.50;95.90;;;;;;5034018;28;20025;-81
2022/10/16 10:04:14;;;;;;;3.80;0.70;;;20.20;95.30;;;;;;5036149;28;20033;-84
2022/10/16 10:06:55;;;;;;;5.53;0.60;;;20.90;94.70;;;;;;5034059;28;20415;-86
2022/10/16 10:09:38;;;;;;;8.00;0.90;;;21.60;93.70;;;;;;5040470;28;20049;-87
2022/10/16 10:12:17;;;;;;;5.47;0.98;;;22.40;92.20;;;;;;5042072;28;20024;-85
2022/10/16 10:14:50;;;;;;;5.10;0.88;;;23.00;89.50;;;;;;5032540;28;20548;-83
2022/10/16 10:17:23;;;;;;;6.03;1.10;;;23.10;85.90;;;;;;5016342;28;20504;-85
2022/10/16 10:19:50;;;;;;;;;;;23.40;83.40;;;;;;5017748;28;20424;-86
2022/10/16 10:22:29;;;;;;;3.42;0.60;;;23.80;83.40;;;;;;5019088;28;19945;-84
2022/10/16 10:25:26;;;;;;;4.95;1.00;;;24.30;82.90;;;;;;5016991;28;20021;-84
2022/10/16 10:28:15;;;;;;;4.38;0.95;;;24.60;77.40;;;;;;5034092;28;20026;-83
2022/10/16 10:30:50;;;;;;;7.53;1.13;;;25.00;76.20;;;;;;5033331;28;20104;-86
2022/10/16 10:33:51;;;;;;;5.65;1.13;;;25.30;73.10;;;;;;5032362;28;20477;-85
2022/10/16 10:36:34;;;;;;;6.00;1.50;;;25.60;68.80;;;;;;5009657;28;20041;-83
2022/10/16 10:39:20;;;;;;;8.27;1.27;;;26.00;66.50;;;;;;5032663;28;20117;-83
2022/10/16 10:42:08;;;;;;;6.20;1.17;;;26.20;65.10;;;;;;5032811;28;20120;-83
2022/10/16 10:45:02;;;;;;;6.65;0.93;;;26.30;63.30;;;;;;5033654;28;20064;-80
2022/10/16 10:47:58;;;;;;;6.53;1.52;;;26.40;61.30;;;;;;5032560;28;20057;-80
2022/10/16 10:50:42;;;;;;;11.50;1.13;;;26.80;60.50;;;;;;5032811;28;20135;-83
2022/10/16 10:53:14;;;;;;;6.90;1.25;;;27.20;59.80;;;;;;5015804;28;20482;-84
2022/10/16 10:56:05;;;;;;;8.18;1.23;;;27.20;58.10;;;;;;5032524;28;20044;-84
2022/10/16 10:59:11;;;;;;;4.40;1.13;;;27.40;57.20;;;;;;5032156;28;20030;-84
2022/10/16 11:01:52;;;;;;;6.35;1.33;;;27.50;56.70;;;;;;5014800;28;20045;-78
2022/10/16 11:04:54;;;;;;;10.75;1.50;;;27.80;55.80;;;;;;5031410;28;20022;-79
2022/10/16 11:07:32;;;;;;;5.45;1.00;;;27.90;53.60;;;;;;5031398;28;20105;-78
2022/10/16 11:10:03;;;;;;;9.25;1.20;;;27.70;52.30;;;;;;5031562;28;20030;-79
2022/10/16 11:12:39;;;;;;;6.72;1.05;;;27.30;51.20;;;;;;5031479;28;20072;-79
2022/10/16 11:15:28;;;;;;;5.20;1.10;;;27.30;51.40;;;;;;5031171;28;20077;-81
2022/10/16 11:18:15;;;;;;;10.55;1.70;;;27.50;52.30;;;;;;5036125;28;20028;-78
2022/10/16 11:20:50;;;;;;;5.93;1.50;;;27.40;52.20;;;;;;5018617;28;20034;-79
2022/10/16 11:23:28;;;;;;;5.03;1.23;;;27.20;51.70;;;;;;5034746;28;20401;-78
2022/10/16 11:25:59;;;;;;;8.13;1.30;;;27.10;51.20;;;;;;5036113;28;20489;-77
2022/10/16 11:28:37;;;;;;;7.43;1.33;;;27.10;51.50;;;;;;5035711;28;20057;-77
2022/10/16 11:31:27;;;;;;;8.00;1.40;;;27.30;51.90;;;;;;5033762;28;20125;-77
2022/10/16 11:34:17;;;;;;;7.25;1.38;;;27.60;52.10;;;;;;5034598;28;20022;-76
2022/10/16 11:36:43;;;;;;;7.30;1.00;;;27.60;52.00;;;;;;5035967;28;20045;-75
2022/10/16 11:39:25;;;;;;;5.82;1.00;;;27.50;51.00;;;;;;5035724;28;20478;-76
2022/10/16 11:41:54;;;;;;;7.65;0.80;;;27.70;50.80;;;;;;5034489;28;20026;-76
2022/10/16 11:44:56;;;;;;;7.07;1.30;;;28.00;51.50;;;;;;5036105;28;20029;-76
2022/10/16 11:47:54;;;;;;;5.57;1.10;;;28.40;50.20;;;;;;5036117;28;20112;-76
2022/10/16 11:50:34;;;;;;;7.47;1.20;;;28.90;50.30;;;;;;5035853;28;20026;-77
2022/10/16 11:53:27;;;;;;;4.80;0.90;;;29.10;47.80;;;;;;5036144;28;20025;-76
2022/10/16 11:55:53;;;;;;;8.90;1.15;;;29.10;46.90;;;;;;5034604;28;20087;-75
2022/10/16 11:58:22;;;;;;;6.25;1.13;;;28.40;46.00;;;;;;5035758;28;20416;-76
2022/10/16 12:00:58;;;;;;;7.88;1.35;;;27.80;47.30;;;;;;5034623;28;20461;-76
2022/10/16 12:03:33;;;;;;;7.95;1.30;;;27.80;48.00;;;;;;5035829;28;20028;-77
2022/10/16 12:06:11;;;;;;;6.45;0.88;;;27.80;47.90;;;;;;5034397;28;20029;-76
2022/10/16 12:08:37;;;;;;;5.65;0.93;;;27.90;48.00;;;;;;5034592;28;20520;-77
2022/10/16 12:11:25;;;;;;;8.13;1.10;;;28.10;47.70;;;;;;5034446;28;20120;-76
2022/10/16 12:13:51;;;;;;;7.68;1.60;;;28.40;47.40;;;;;;5034306;28;20108;-76
2022/10/16 12:16:17;;;;;;;6.80;1.20;;;28.50;46.70;;;;;;5035064;28;20544;-76
2022/10/16 12:18:45;;;;;;;4.93;0.93;;;28.70;46.70;;;;;;5034316;28;20083;-76
2022/10/16 12:21:15;;;;;;;6.22;1.05;;;28.90;46.10;;;;;;5017534;28;20034;-76
2022/10/16 12:23:55;;;;;;;6.88;1.20;;;29.10;45.90;;;;;;5018034;28;20026;-81
2022/10/16 12:26:39;;;;;;;5.93;1.40;;;29.30;45.10;;;;;;5033513;28;20051;-80
2022/10/16 12:29:44;;;;;;;4.93;0.90;;;29.60;45.50;;;;;;5015986;28;20021;-79
2022/10/16 12:32:33;;;;;;;5.65;1.00;;;30.10;45.40;;;;;;5034973;28;20040;-81
2022/10/16 12:35:00;;;;;;;6.20;1.10;;;30.40;44.80;;;;;;5016898;28;20102;-80
2022/10/16 12:37:37;;;;;;;5.75;1.08;;;30.90;45.20;;;;;;5017031;28;20033;-82
2022/10/16 12:40:31;;;;;;;8.52;1.05;;;31.10;44.50;;;;;;5033686;28;20030;-82
2022/10/16 12:42:58;;;;;;;5.85;1.00;;;31.40;43.70;;;;;;5033840;28;20120;-82
2022/10/16 12:45:32;;;;;;;5.28;1.10;;;31.50;43.40;;;;;;5019511;28;20056;-79
2022/10/16 12:48:00;;;;;;;6.47;1.30;;;31.70;43.20;;;;;;5044330;28;20366;-81
2022/10/16 12:50:31;;;;;;;5.78;1.00;;;31.90;43.10;;;;;;5053079;28;20634;-83
2022/10/16 12:52:57;;;;;;;8.60;1.02;;;32.00;42.80;;;;;;5053140;28;20021;-79
2022/10/16 12:55:24;;;;;;;7.57;1.13;;;32.20;42.60;;;;;;5053139;28;20021;-83
2022/10/16 12:58:14;;;;;;;6.95;1.15;;;32.30;41.70;;;;;;5036472;28;20021;-83
2022/10/16 13:00:56;;;;;;;7.82;1.02;;;32.30;41.30;;;;;;5054339;28;20028;-83
2022/10/16 13:03:30;;;;;;;7.45;1.50;;;32.30;41.00;;;;;;5053288;28;20144;-81
2022/10/16 13:06:37;;;;;;;7.05;0.95;;;32.40;41.00;;;;;;5054697;28;20025;-81
2022/10/16 13:09:11;;;;;;;6.78;1.27;;;32.40;40.40;;;;;;5053509;28;20087;-83